Time;durP1;ratioP1;P1;durP2;ratioP2;P2;SDS_P1;SDS_P2;PMS_P1;PMS_P2;Temp;Humidity;BMP_temperature;BMP_pressure;BME280_temperature;BME280_humidity;BME280_pressure;Samples;Min_cycle;Max_cycle;Signal;HPM_P1;HPM_P2
2021/10/14 00:00:37;;;;;;;4.03;3.73;;;5.80;99.90;;;;;;5021240;28;20536;-65
2021/10/14 00:03:06;;;;;;;4.15;3.70;;;5.70;99.90;;;;;;5023721;28;20501;-63
2021/10/14 00:05:33;;;;;;;5.03;4.18;;;5.70;99.90;;;;;;5015999;28;20183;-65
2021/10/14 00:07:59;;;;;;;5.82;4.32;;;5.70;99.90;;;;;;5015392;28;20253;-65
2021/10/14 00:10:25;;;;;;;4.30;3.90;;;5.70;99.90;;;;;;5018797;28;20567;-64
2021/10/14 00:12:51;;;;;;;3.72;3.42;;;5.70;99.90;;;;;;5033668;28;20177;-64
2021/10/14 00:15:17;;;;;;;6.70;5.27;;;5.60;99.90;;;;;;5023136;28;20171;-65
2021/10/14 00:17:42;;;;;;;3.73;3.43;;;5.60;99.90;;;;;;5013638;28;20523;-64
2021/10/14 00:20:09;;;;;;;4.70;4.30;;;5.60;99.90;;;;;;5014746;28;20551;-64
2021/10/14 00:22:34;;;;;;;4.35;3.88;;;5.60;99.90;;;;;;5033687;28;20178;-64
2021/10/14 00:25:00;;;;;;;6.73;4.33;;;5.60;99.90;;;;;;5025774;28;20534;-65
2021/10/14 00:27:26;;;;;;;5.93;4.40;;;5.60;99.90;;;;;;5016693;28;20204;-65
2021/10/14 00:29:51;;;;;;;6.87;3.97;;;5.60;99.90;;;;;;5018264;28;20171;-65
2021/10/14 00:32:17;;;;;;;4.70;4.20;;;5.60;99.90;;;;;;5034834;28;20232;-64
2021/10/14 00:34:43;;;;;;;4.07;3.67;;;5.60;99.90;;;;;;5034971;28;20178;-65
2021/10/14 00:37:08;;;;;;;5.23;4.40;;;5.60;99.90;;;;;;5034873;28;20425;-65
2021/10/14 00:39:34;;;;;;;3.17;2.83;;;5.60;99.90;;;;;;5034965;28;20250;-64
2021/10/14 00:42:00;;;;;;;3.80;3.20;;;5.60;99.90;;;;;;5035090;28;20417;-64
2021/10/14 00:44:25;;;;;;;4.07;3.67;;;5.60;99.90;;;;;;5033317;28;20773;-65
2021/10/14 00:46:55;;;;;;;4.37;3.50;;;5.60;99.90;;;;;;5031640;28;20205;-66
2021/10/14 00:49:22;;;;;;;4.40;3.50;;;5.60;99.90;;;;;;5034540;28;20205;-65
2021/10/14 00:51:48;;;;;;;4.40;2.70;;;5.70;99.90;;;;;;5034824;28;20171;-65
2021/10/14 00:54:17;;;;;;;2.53;2.43;;;5.60;99.90;;;;;;5034359;28;20162;-64
2021/10/14 00:56:45;;;;;;;3.45;3.15;;;5.60;99.90;;;;;;5033887;28;20422;-66
2021/10/14 00:59:11;;;;;;;3.53;3.22;;;5.70;99.90;;;;;;5035084;28;20204;-65
2021/10/14 01:01:37;;;;;;;3.75;3.35;;;5.60;99.90;;;;;;5032552;28;20174;-64
2021/10/14 01:04:05;;;;;;;4.13;3.70;;;5.60;99.90;;;;;;5032040;28;20262;-65
2021/10/14 01:06:31;;;;;;;4.93;3.35;;;5.60;99.90;;;;;;5032100;28;20200;-65
2021/10/14 01:08:58;;;;;;;4.32;3.97;;;5.60;99.90;;;;;;5032028;28;20220;-65
2021/10/14 01:11:24;;;;;;;4.07;3.65;;;5.50;99.90;;;;;;5033027;28;20178;-64
2021/10/14 01:13:50;;;;;;;4.38;3.35;;;5.50;99.90;;;;;;5024495;28;20529;-66
2021/10/14 01:16:16;;;;;;;5.00;3.83;;;5.60;99.90;;;;;;5023966;28;20181;-64
2021/10/14 01:18:42;;;;;;;5.53;3.37;;;5.50;99.90;;;;;;5033534;28;20190;-63
2021/10/14 01:21:08;;;;;;;8.20;5.32;;;5.40;99.90;;;;;;5033008;28;20265;-65
2021/10/14 01:23:36;;;;;;;6.37;4.37;;;5.40;99.90;;;;;;5033236;28;20198;-63
2021/10/14 01:26:02;;;;;;;4.60;3.42;;;5.40;99.90;;;;;;5030647;28;20425;-64
2021/10/14 01:28:30;;;;;;;3.63;3.33;;;5.40;99.90;;;;;;5032604;28;20217;-64
2021/10/14 01:30:58;;;;;;;4.53;4.13;;;5.40;99.90;;;;;;5034389;28;20166;-65
2021/10/14 01:33:26;;;;;;;6.47;4.38;;;5.40;99.90;;;;;;5016531;28;20181;-64
2021/10/14 01:35:52;;;;;;;3.95;3.65;;;5.50;99.90;;;;;;5033858;28;20196;-65
2021/10/14 01:38:18;;;;;;;3.65;3.35;;;5.50;99.90;;;;;;5032680;28;20556;-64
2021/10/14 01:40:45;;;;;;;4.47;3.80;;;5.60;99.90;;;;;;5034161;28;20166;-63
2021/10/14 01:43:14;;;;;;;6.43;4.63;;;5.60;99.90;;;;;;5032707;28;20193;-65
2021/10/14 01:45:40;;;;;;;3.97;3.55;;;5.60;99.90;;;;;;5023793;28;20536;-64
2021/10/14 01:48:06;;;;;;;4.77;3.70;;;5.60;99.90;;;;;;5032648;28;20205;-65
2021/10/14 01:50:32;;;;;;;4.77;4.20;;;5.60;99.90;;;;;;5033582;28;20171;-66
2021/10/14 01:52:58;;;;;;;3.10;2.80;;;5.50;99.90;;;;;;5032629;28;20456;-65
2021/10/14 01:55:23;;;;;;;5.03;3.23;;;5.50;99.90;;;;;;5020289;28;20918;-65
2021/10/14 01:57:49;;;;;;;3.40;2.97;;;5.40;99.90;;;;;;5032190;28;20589;-65
2021/10/14 02:00:15;;;;;;;2.70;2.53;;;5.30;99.90;;;;;;5032540;28;20166;-64
2021/10/14 02:02:41;;;;;;;3.60;3.10;;;5.30;99.90;;;;;;5032298;28;20636;-63
2021/10/14 02:05:07;;;;;;;5.63;4.18;;;5.20;99.90;;;;;;5024361;28;20178;-65
2021/10/14 02:07:34;;;;;;;4.15;3.70;;;5.20;99.90;;;;;;5033253;28;20217;-65
2021/10/14 02:10:00;;;;;;;3.40;3.10;;;5.20;99.90;;;;;;5033735;28;20190;-64
2021/10/14 02:12:26;;;;;;;5.28;4.47;;;5.10;99.90;;;;;;5033407;28;20171;-63
2021/10/14 02:14:52;;;;;;;2.53;2.42;;;5.20;99.90;;;;;;5033276;28;20280;-64
2021/10/14 02:17:18;;;;;;;5.28;3.08;;;5.20;99.90;;;;;;5031826;28;20181;-65
2021/10/14 02:19:44;;;;;;;4.07;3.30;;;5.10;99.90;;;;;;5032640;28;20170;-66
2021/10/14 02:22:09;;;;;;;3.20;2.77;;;5.10;99.90;;;;;;5033554;28;20390;-63
2021/10/14 02:24:36;;;;;;;5.20;3.80;;;5.10;99.90;;;;;;5024598;28;20641;-64
2021/10/14 02:27:02;;;;;;;3.85;3.28;;;5.10;99.90;;;;;;5032779;28;20170;-64
2021/10/14 02:29:28;;;;;;;6.20;4.50;;;5.10;99.90;;;;;;5033136;28;20686;-63
2021/10/14 02:31:54;;;;;;;7.70;4.60;;;5.10;99.90;;;;;;5033601;28;20740;-65
2021/10/14 02:34:20;;;;;;;5.75;4.10;;;5.10;99.90;;;;;;5032442;28;20724;-64
2021/10/14 02:36:46;;;;;;;8.15;4.00;;;5.10;99.90;;;;;;5032022;28;20255;-65
2021/10/14 02:39:11;;;;;;;4.90;3.77;;;5.10;99.90;;;;;;5033047;28;20229;-64
2021/10/14 02:41:37;;;;;;;4.23;3.77;;;5.10;99.90;;;;;;5032106;28;20181;-66
2021/10/14 02:44:03;;;;;;;3.93;3.57;;;5.10;99.90;;;;;;5032472;28;20166;-63
2021/10/14 02:46:29;;;;;;;6.05;3.75;;;5.10;99.90;;;;;;5031152;28;20448;-64
2021/10/14 02:48:55;;;;;;;4.67;3.80;;;5.10;99.90;;;;;;5032630;28;20674;-64
2021/10/14 02:51:20;;;;;;;3.60;3.20;;;5.00;99.90;;;;;;5033183;28;20174;-64
2021/10/14 02:53:46;;;;;;;4.07;3.80;;;5.00;99.90;;;;;;5032982;28;20257;-66
2021/10/14 02:56:12;;;;;;;6.23;4.20;;;5.00;99.90;;;;;;5025274;28;20204;-63
2021/10/14 02:58:37;;;;;;;4.93;4.10;;;5.00;99.90;;;;;;5032560;28;20619;-66
2021/10/14 03:01:03;;;;;;;4.73;4.33;;;4.90;99.90;;;;;;5033336;28;20529;-66
2021/10/14 03:03:29;;;;;;;5.47;4.27;;;4.90;99.90;;;;;;5031519;28;20174;-65
2021/10/14 03:05:54;;;;;;;3.80;3.17;;;4.90;99.90;;;;;;5031369;28;20182;-64
2021/10/14 03:08:20;;;;;;;5.20;4.70;;;4.90;99.90;;;;;;5032388;28;20252;-65
2021/10/14 03:10:45;;;;;;;7.10;4.00;;;4.90;99.90;;;;;;5033003;28;20163;-64
2021/10/14 03:13:11;;;;;;;4.60;4.13;;;5.00;99.90;;;;;;5032668;28;20198;-64
2021/10/14 03:15:37;;;;;;;5.70;4.93;;;5.00;99.90;;;;;;5018940;28;20182;-65
2021/10/14 03:18:02;;;;;;;7.40;4.70;;;5.00;99.90;;;;;;5032201;28;20194;-63
2021/10/14 03:20:28;;;;;;;6.57;4.20;;;5.00;99.90;;;;;;5032785;28;20521;-64
2021/10/14 03:22:54;;;;;;;5.50;2.90;;;5.10;99.90;;;;;;5032836;28;20189;-63
2021/10/14 03:25:19;;;;;;;5.60;4.50;;;5.10;99.90;;;;;;5030417;28;20182;-65
2021/10/14 03:27:45;;;;;;;4.87;4.10;;;5.00;99.90;;;;;;5030953;28;20692;-64
2021/10/14 03:30:11;;;;;;;4.73;4.20;;;5.00;99.90;;;;;;5032447;28;20218;-65
2021/10/14 03:32:36;;;;;;;4.70;3.40;;;4.90;99.90;;;;;;5034913;28;20228;-64
2021/10/14 03:35:02;;;;;;;3.97;3.57;;;4.90;99.90;;;;;;5023045;28;20182;-64
2021/10/14 03:37:28;;;;;;;4.20;3.33;;;4.90;99.90;;;;;;5035145;28;20196;-65
2021/10/14 03:39:53;;;;;;;3.43;3.10;;;4.80;99.90;;;;;;5036205;28;20162;-65
2021/10/14 03:42:21;;;;;;;3.97;3.10;;;4.80;99.90;;;;;;5036094;28;20257;-64
2021/10/14 03:44:46;;;;;;;4.45;3.40;;;4.70;99.90;;;;;;5035510;28;20178;-64
2021/10/14 03:47:12;;;;;;;4.07;3.67;;;4.70;99.90;;;;;;5034246;28;20228;-63
2021/10/14 03:49:37;;;;;;;6.03;4.07;;;4.70;99.90;;;;;;5034496;28;20244;-62
2021/10/14 03:52:03;;;;;;;4.03;3.53;;;4.70;99.90;;;;;;5034616;28;20166;-63
2021/10/14 03:54:29;;;;;;;4.47;3.57;;;4.60;99.90;;;;;;5026263;28;20224;-64
2021/10/14 03:56:55;;;;;;;4.07;3.70;;;4.60;99.90;;;;;;5028778;28;20452;-65
2021/10/14 03:59:20;;;;;;;5.70;5.03;;;4.60;99.90;;;;;;5034471;28;20197;-64
2021/10/14 04:01:46;;;;;;;18.13;3.97;;;4.70;99.90;;;;;;5034858;28;20270;-64
2021/10/14 04:04:11;;;;;;;4.77;3.70;;;4.60;99.90;;;;;;5035234;28;20184;-64
2021/10/14 04:06:37;;;;;;;4.67;4.10;;;4.60;99.90;;;;;;5034887;28;20210;-63
2021/10/14 04:09:03;;;;;;;10.30;4.53;;;4.60;99.90;;;;;;5033707;28;20209;-63
2021/10/14 04:11:28;;;;;;;5.43;4.37;;;4.60;99.90;;;;;;5035504;28;20212;-63
2021/10/14 04:13:54;;;;;;;4.17;3.70;;;4.60;99.90;;;;;;5033279;28;20704;-65
2021/10/14 04:16:19;;;;;;;7.13;5.13;;;4.60;99.90;;;;;;5021002;28;20177;-66
2021/10/14 04:18:45;;;;;;;5.43;4.33;;;4.70;99.90;;;;;;5054736;28;20240;-64
2021/10/14 04:21:11;;;;;;;5.27;4.77;;;4.70;99.90;;;;;;5044628;28;20275;-64
2021/10/14 04:23:36;;;;;;;5.83;4.57;;;4.80;99.90;;;;;;5026240;28;20186;-64
2021/10/14 04:26:02;;;;;;;5.53;4.13;;;4.80;99.90;;;;;;5032165;28;20186;-65
2021/10/14 04:28:28;;;;;;;6.60;4.60;;;4.80;99.90;;;;;;5032832;28;20551;-64
2021/10/14 04:30:54;;;;;;;5.43;4.53;;;4.90;99.90;;;;;;5034692;28;20235;-63
2021/10/14 04:33:20;;;;;;;3.67;3.37;;;4.90;99.90;;;;;;5025735;28;20201;-65
2021/10/14 04:35:45;;;;;;;7.10;4.57;;;5.00;99.90;;;;;;5018935;28;20456;-64
2021/10/14 04:38:11;;;;;;;6.17;5.27;;;5.10;99.90;;;;;;5034427;28;20253;-65
2021/10/14 04:40:37;;;;;;;4.50;3.80;;;5.10;99.90;;;;;;5034542;28;20174;-64
2021/10/14 04:43:02;;;;;;;4.00;3.47;;;5.10;99.90;;;;;;5033007;28;20181;-66
2021/10/14 04:45:28;;;;;;;6.30;4.97;;;5.20;99.90;;;;;;5032965;28;20174;-66
2021/10/14 04:47:53;;;;;;;6.53;5.17;;;5.30;99.90;;;;;;5034153;28;20696;-65
2021/10/14 04:50:19;;;;;;;5.67;4.70;;;5.30;99.90;;;;;;5034442;28;20197;-65
2021/10/14 04:52:45;;;;;;;5.13;3.70;;;5.30;99.90;;;;;;5033126;28;20609;-65
2021/10/14 04:55:10;;;;;;;3.60;3.30;;;5.30;99.90;;;;;;5027331;28;20231;-66
2021/10/14 04:57:36;;;;;;;5.33;4.90;;;5.20;99.90;;;;;;5032925;28;20845;-65
2021/10/14 05:00:04;;;;;;;4.57;4.13;;;5.20;99.90;;;;;;5033181;28;20265;-67
2021/10/14 05:02:29;;;;;;;6.85;3.65;;;5.20;99.90;;;;;;5031135;28;20174;-66
2021/10/14 05:04:55;;;;;;;4.50;4.13;;;5.20;99.90;;;;;;5013478;28;20225;-65
2021/10/14 05:07:20;;;;;;;6.33;4.90;;;5.20;99.90;;;;;;5031582;28;20224;-64
2021/10/14 05:09:46;;;;;;;6.50;4.70;;;5.20;99.90;;;;;;5033266;28;20181;-64
2021/10/14 05:12:12;;;;;;;4.87;4.17;;;5.30;99.90;;;;;;5034225;28;20176;-65
2021/10/14 05:14:38;;;;;;;4.87;3.80;;;5.30;99.90;;;;;;5033729;28;20185;-64
2021/10/14 05:17:03;;;;;;;5.07;4.00;;;5.40;99.90;;;;;;5020387;28;20198;-66
2021/10/14 05:19:29;;;;;;;4.93;4.40;;;5.40;99.90;;;;;;5014546;28;20505;-64
2021/10/14 05:21:55;;;;;;;9.83;4.97;;;5.50;99.90;;;;;;5014448;28;20179;-64
2021/10/14 05:24:20;;;;;;;6.13;4.13;;;5.50;99.90;;;;;;5028218;28;20193;-65
2021/10/14 05:26:46;;;;;;;5.53;4.57;;;5.60;99.90;;;;;;5032780;28;20222;-64
2021/10/14 05:29:11;;;;;;;3.93;3.40;;;5.50;99.90;;;;;;5033802;28;20556;-64
2021/10/14 05:31:37;;;;;;;3.30;3.00;;;5.60;99.90;;;;;;5034231;28;20170;-65
2021/10/14 05:34:03;;;;;;;4.27;3.93;;;5.60;99.90;;;;;;5033546;28;20642;-66
2021/10/14 05:36:29;;;;;;;5.10;4.15;;;5.60;99.90;;;;;;5032210;28;20267;-65
2021/10/14 05:38:55;;;;;;;3.57;3.37;;;5.60;99.90;;;;;;5033643;28;20287;-65
2021/10/14 05:41:21;;;;;;;4.33;3.77;;;5.60;99.90;;;;;;5032839;28;20181;-64
2021/10/14 05:43:46;;;;;;;4.32;3.45;;;5.60;99.90;;;;;;5032394;28;20178;-65
2021/10/14 05:46:12;;;;;;;2.93;2.33;;;5.70;99.90;;;;;;5033002;28;20624;-63
2021/10/14 05:48:38;;;;;;;4.00;3.40;;;5.70;99.90;;;;;;5031197;28;20731;-66
2021/10/14 05:51:04;;;;;;;3.00;2.70;;;5.70;99.90;;;;;;5031696;28;20532;-67
2021/10/14 05:53:29;;;;;;;4.17;3.67;;;5.70;99.90;;;;;;5033195;28;20391;-67
2021/10/14 05:55:55;;;;;;;4.20;3.80;;;5.80;99.90;;;;;;5030519;28;20182;-65
2021/10/14 05:58:21;;;;;;;4.40;3.40;;;5.80;99.90;;;;;;5032781;28;20201;-66
2021/10/14 06:00:46;;;;;;;8.00;4.60;;;5.80;99.90;;;;;;5021670;28;20393;-64
2021/10/14 06:03:12;;;;;;;4.63;3.80;;;5.80;99.90;;;;;;5014723;28;20297;-65
2021/10/14 06:05:37;;;;;;;6.10;4.77;;;5.80;99.90;;;;;;5013626;28;20207;-66
2021/10/14 06:08:03;;;;;;;4.80;3.73;;;5.80;99.90;;;;;;5012503;28;20748;-65
2021/10/14 06:10:29;;;;;;;3.30;3.00;;;5.80;99.90;;;;;;5014052;28;20177;-65
2021/10/14 06:12:55;;;;;;;4.17;3.50;;;5.80;99.90;;;;;;5013116;28;20406;-65
2021/10/14 06:15:20;;;;;;;5.00;4.50;;;5.80;99.90;;;;;;5016653;28;20183;-64
2021/10/14 06:17:46;;;;;;;6.20;4.40;;;5.90;99.90;;;;;;5032410;28;20198;-65
2021/10/14 06:20:11;;;;;;;3.47;3.17;;;5.90;99.90;;;;;;5031452;28;20181;-64
2021/10/14 06:22:37;;;;;;;4.23;3.83;;;5.90;99.90;;;;;;5032876;28;20526;-65
2021/10/14 06:25:03;;;;;;;3.83;2.47;;;6.00;99.90;;;;;;5032026;28;20178;-63
2021/10/14 06:27:29;;;;;;;4.00;3.17;;;6.10;99.90;;;;;;5032200;28;20464;-63
2021/10/14 06:29:58;;;;;;;5.90;4.00;;;6.20;99.90;;;;;;5032824;28;20190;-66
2021/10/14 06:32:25;;;;;;;3.97;3.45;;;6.30;99.90;;;;;;5032619;28;20166;-65
2021/10/14 06:34:50;;;;;;;4.45;3.47;;;6.40;99.90;;;;;;5032899;28;20253;-64
2021/10/14 06:37:16;;;;;;;3.37;3.13;;;6.50;99.90;;;;;;5032299;28;20208;-65
2021/10/14 06:39:42;;;;;;;3.50;3.20;;;6.50;99.90;;;;;;5032825;28;20168;-62
2021/10/14 06:42:07;;;;;;;5.37;2.93;;;6.70;99.90;;;;;;5033461;28;20173;-66
2021/10/14 06:44:33;;;;;;;5.80;3.83;;;6.80;99.90;;;;;;5032895;28;20226;-66
2021/10/14 06:46:58;;;;;;;4.90;4.40;;;6.90;99.90;;;;;;5032461;28;20544;-65
2021/10/14 06:49:24;;;;;;;5.53;3.40;;;6.90;99.90;;;;;;5032976;28;20206;-64
2021/10/14 06:51:50;;;;;;;3.93;3.30;;;7.00;99.90;;;;;;5032871;28;20650;-65
2021/10/14 06:54:15;;;;;;;3.27;2.97;;;7.00;99.90;;;;;;5032474;28;20186;-64
2021/10/14 06:56:41;;;;;;;10.47;4.37;;;7.10;99.90;;;;;;5031912;28;20185;-62
2021/10/14 06:59:07;;;;;;;5.27;3.30;;;7.20;99.90;;;;;;5032903;28;20197;-61
2021/10/14 07:01:32;;;;;;;4.20;3.80;;;7.30;99.90;;;;;;5032864;28;20215;-64
2021/10/14 07:03:58;;;;;;;3.03;2.83;;;7.40;99.90;;;;;;5032353;28;20174;-63
2021/10/14 07:06:23;;;;;;;4.10;3.03;;;7.50;99.90;;;;;;5033311;28;20180;-65
2021/10/14 07:08:49;;;;;;;6.60;3.90;;;7.70;99.90;;;;;;5036020;28;20752;-63
2021/10/14 07:11:15;;;;;;;3.70;3.17;;;7.90;99.90;;;;;;5036707;28;20170;-64
2021/10/14 07:13:44;;;;;;;4.47;3.63;;;7.90;99.90;;;;;;5036142;28;20652;-66
2021/10/14 07:16:10;;;;;;;3.88;3.42;;;8.00;99.90;;;;;;5036491;28;20529;-66
2021/10/14 07:18:36;;;;;;;3.95;3.60;;;8.00;99.90;;;;;;5036056;28;20194;-65
2021/10/14 07:21:02;;;;;;;3.63;2.87;;;8.10;99.90;;;;;;5036379;28;20212;-64
2021/10/14 07:23:28;;;;;;;4.27;3.93;;;8.10;99.90;;;;;;5035884;28;20269;-63
2021/10/14 07:25:55;;;;;;;3.55;3.00;;;8.20;99.90;;;;;;5031322;28;20181;-65
2021/10/14 07:28:21;;;;;;;4.20;3.72;;;8.20;99.90;;;;;;5014883;28;20585;-64
2021/10/14 07:30:46;;;;;;;4.97;3.20;;;8.30;99.90;;;;;;5019236;28;20178;-62
2021/10/14 07:33:12;;;;;;;4.10;3.70;;;8.40;99.90;;;;;;5046743;28;20419;-65
2021/10/14 07:35:41;;;;;;;3.83;2.80;;;8.50;99.90;;;;;;5038204;28;20176;-63
2021/10/14 07:38:10;;;;;;;3.13;2.83;;;8.60;99.90;;;;;;5035420;28;20428;-65
2021/10/14 07:40:41;;;;;;;2.83;2.53;;;8.80;99.90;;;;;;5019435;28;20253;-64
2021/10/14 07:43:08;;;;;;;2.97;2.78;;;9.10;99.90;;;;;;5035906;28;20320;-65
2021/10/14 07:45:34;;;;;;;4.43;3.20;;;9.40;99.90;;;;;;5023629;28;20201;-65
2021/10/14 07:48:00;;;;;;;3.10;2.80;;;9.80;99.90;;;;;;5022038;28;20198;-63
2021/10/14 07:50:27;;;;;;;3.22;2.90;;;10.20;99.90;;;;;;5034067;28;20350;-64
2021/10/14 07:52:52;;;;;;;2.53;2.33;;;10.40;99.90;;;;;;5035289;28;20261;-67
2021/10/14 07:55:18;;;;;;;4.33;3.30;;;10.60;99.90;;;;;;5034997;28;20500;-64
2021/10/14 07:57:44;;;;;;;3.40;1.97;;;10.70;99.90;;;;;;5035549;28;20195;-65
2021/10/14 08:00:11;;;;;;;3.17;2.87;;;10.70;99.90;;;;;;5034044;28;20199;-63
2021/10/14 08:02:36;;;;;;;3.90;3.00;;;10.70;99.90;;;;;;5035365;28;20282;-67
2021/10/14 08:05:03;;;;;;;4.53;3.27;;;10.80;99.90;;;;;;5034926;28;20860;-65
2021/10/14 08:07:29;;;;;;;2.77;2.00;;;10.80;99.90;;;;;;5034994;28;20435;-66
2021/10/14 08:09:54;;;;;;;6.93;2.63;;;10.80;99.90;;;;;;5035554;28;20397;-66
2021/10/14 08:12:21;;;;;;;2.50;2.30;;;10.80;99.90;;;;;;5015873;28;20428;-65
2021/10/14 08:14:47;;;;;;;6.40;2.90;;;10.90;99.90;;;;;;5015563;28;20385;-66
2021/10/14 08:17:12;;;;;;;3.20;2.60;;;11.20;99.90;;;;;;5032299;28;20903;-66
2021/10/14 08:19:38;;;;;;;9.33;2.70;;;11.40;99.90;;;;;;5033974;28;20242;-65
2021/10/14 08:22:04;;;;;;;2.47;2.27;;;11.70;99.90;;;;;;5014959;28;20184;-66
2021/10/14 08:24:29;;;;;;;4.10;2.27;;;11.90;99.90;;;;;;5035102;28;20185;-65
2021/10/14 08:26:55;;;;;;;2.73;2.53;;;12.00;99.90;;;;;;5034288;28;20181;-64
2021/10/14 08:29:21;;;;;;;9.37;2.90;;;12.20;99.90;;;;;;5034694;28;20232;-66
2021/10/14 08:31:46;;;;;;;2.80;2.53;;;12.50;99.90;;;;;;5034332;28;20664;-66
2021/10/14 08:34:12;;;;;;;3.93;2.43;;;12.80;99.90;;;;;;5034427;28;20630;-67
2021/10/14 08:36:38;;;;;;;3.80;1.93;;;12.90;99.90;;;;;;5031075;28;20185;-65
2021/10/14 08:39:04;;;;;;;2.70;2.40;;;13.00;99.90;;;;;;5034424;28;20205;-66
2021/10/14 08:41:29;;;;;;;3.17;2.57;;;13.40;99.90;;;;;;5034234;28;20478;-65
2021/10/14 08:43:57;;;;;;;2.80;1.80;;;14.10;99.90;;;;;;5034492;28;20182;-66
2021/10/14 08:46:23;;;;;;;1.97;1.87;;;15.00;99.90;;;;;;5022844;28;20178;-64
2021/10/14 08:48:49;;;;;;;3.27;2.20;;;15.90;99.90;;;;;;5014421;28;21117;-67
2021/10/14 08:51:15;;;;;;;2.33;2.13;;;16.90;99.90;;;;;;5027682;28;20189;-65
2021/10/14 08:53:40;;;;;;;1.87;1.77;;;17.50;99.90;;;;;;5030198;28;20430;-64
2021/10/14 08:56:06;;;;;;;2.00;1.80;;;17.70;96.30;;;;;;5034004;28;20198;-66
2021/10/14 08:58:32;;;;;;;2.33;2.17;;;17.70;97.70;;;;;;5033868;28;20194;-66
2021/10/14 09:01:13;;;;;;;4.00;2.40;;;17.70;96.80;;;;;;5034061;28;20178;-67
2021/10/14 09:03:49;;;;;;;2.13;1.87;;;17.80;97.70;;;;;;5024832;28;20185;-67
2021/10/14 09:06:16;;;;;;;3.17;1.90;;;17.90;96.10;;;;;;5028788;28;20396;-66
2021/10/14 09:08:44;;;;;;;2.50;2.30;;;17.80;96.00;;;;;;5053284;28;20489;-66
2021/10/14 09:11:27;;;;;;;5.47;1.97;;;17.70;96.10;;;;;;5041973;28;20475;-65
2021/10/14 09:14:03;;;;;;;2.03;1.93;;;17.40;95.20;;;;;;5027388;28;20508;-66
2021/10/14 09:16:32;;;;;;;2.17;2.00;;;17.50;95.10;;;;;;5032604;28;20419;-65
2021/10/14 09:19:12;;;;;;;1.80;1.70;;;17.80;95.30;;;;;;5033622;28;20510;-66
2021/10/14 09:21:40;;;;;;;1.97;1.83;;;18.10;94.50;;;;;;5033568;28;20450;-65
2021/10/14 09:24:36;;;;;;;2.23;1.67;;;18.20;94.50;;;;;;5033150;28;20777;-65
2021/10/14 09:27:07;;;;;;;2.23;2.03;;;18.30;95.40;;;;;;5017836;28;20795;-66
2021/10/14 09:29:34;;;;;;;2.77;2.03;;;18.40;93.80;;;;;;5051734;28;20468;-67
2021/10/14 09:32:02;;;;;;;2.17;2.00;;;18.20;94.00;;;;;;5035205;28;20988;-66
2021/10/14 09:34:35;;;;;;;2.23;1.50;;;18.20;95.10;;;;;;5033416;28;20753;-67
2021/10/14 09:37:05;;;;;;;2.20;2.00;;;18.10;93.20;;;;;;5032794;28;20416;-66
2021/10/14 09:39:31;;;;;;;1.60;1.50;;;17.60;93.20;;;;;;5033119;28;20376;-66
2021/10/14 09:41:58;;;;;;;1.90;1.60;;;17.70;93.40;;;;;;5033455;28;20399;-65
2021/10/14 09:44:24;;;;;;;3.17;1.83;;;18.10;94.20;;;;;;5033495;28;20396;-66
2021/10/14 09:46:57;;;;;;;2.57;2.03;;;18.50;93.50;;;;;;5031591;28;20419;-66
2021/10/14 09:49:31;;;;;;;1.80;1.70;;;18.70;94.50;;;;;;5033334;28;20463;-66
2021/10/14 09:52:01;;;;;;;1.90;1.70;;;19.20;94.20;;;;;;5032969;28;20413;-65
2021/10/14 09:54:32;;;;;;;2.37;1.90;;;19.50;92.70;;;;;;5032947;28;20502;-65
2021/10/14 09:56:58;;;;;;;2.00;1.80;;;19.90;91.90;;;;;;5033100;28;20387;-65
2021/10/14 09:59:24;;;;;;;1.73;1.63;;;20.20;91.70;;;;;;5033312;28;20407;-66
2021/10/14 10:01:54;;;;;;;1.90;1.43;;;20.50;90.70;;;;;;5032848;28;20511;-66
2021/10/14 10:04:25;;;;;;;1.57;1.47;;;21.00;90.70;;;;;;5033179;28;20274;-67
2021/10/14 10:06:51;;;;;;;1.80;1.70;;;21.60;86.30;;;;;;5027167;28;20431;-67
2021/10/14 10:09:19;;;;;;;1.80;1.70;;;22.00;86.30;;;;;;5037592;28;21005;-67
2021/10/14 10:11:52;;;;;;;2.47;2.30;;;22.20;83.30;;;;;;5038949;28;20421;-66
2021/10/14 10:14:25;;;;;;;1.77;1.50;;;22.40;87.40;;;;;;5030140;28;20408;-67
2021/10/14 10:17:08;;;;;;;2.23;2.13;;;22.60;80.50;;;;;;5013113;28;20410;-68
2021/10/14 10:19:46;;;;;;;1.70;1.60;;;22.50;80.30;;;;;;5026875;28;20746;-65
2021/10/14 10:22:35;;;;;;;2.73;1.70;;;22.20;80.40;;;;;;5032370;28;20450;-66
2021/10/14 10:25:25;;;;;;;2.37;2.17;;;22.10;83.70;;;;;;5032785;28;20443;-66
2021/10/14 10:27:52;;;;;;;1.80;1.70;;;22.30;80.00;;;;;;5032832;28;20467;-67
2021/10/14 10:30:32;;;;;;;2.50;2.23;;;22.40;79.00;;;;;;5033087;28;20408;-65
2021/10/14 10:32:59;;;;;;;2.03;1.93;;;22.60;80.90;;;;;;5014452;28;20447;-66
2021/10/14 10:35:51;;;;;;;2.33;1.50;;;22.60;80.90;;;;;;5013459;28;20425;-65
2021/10/14 10:38:26;;;;;;;1.90;1.67;;;22.60;82.30;;;;;;5012049;28;20449;-67
2021/10/14 10:40:55;;;;;;;1.77;1.67;;;22.50;80.80;;;;;;5019382;28;20455;-66
2021/10/14 10:43:26;;;;;;;2.20;2.00;;;22.40;82.30;;;;;;5036303;28;20434;-67
2021/10/14 10:46:05;;;;;;;1.93;1.83;;;22.50;80.40;;;;;;5037273;28;20416;-66
2021/10/14 10:48:36;;;;;;;2.83;2.07;;;22.50;79.40;;;;;;5036673;28;20954;-65
2021/10/14 10:51:06;;;;;;;1.43;1.40;;;22.30;79.00;;;;;;5036637;28;20395;-66
2021/10/14 10:53:42;;;;;;;2.73;2.03;;;22.30;80.20;;;;;;5025236;28;20415;-65
2021/10/14 10:56:37;;;;;;;3.40;1.90;;;22.20;78.60;;;;;;5017120;28;20425;-67
2021/10/14 10:59:04;;;;;;;2.77;2.57;;;22.00;80.00;;;;;;5017190;28;20434;-66
2021/10/14 11:01:30;;;;;;;2.97;2.50;;;21.90;80.80;;;;;;5025563;28;20431;-68
2021/10/14 11:04:04;;;;;;;2.33;2.07;;;21.30;79.40;;;;;;5034918;28;20423;-66
2021/10/14 11:06:32;;;;;;;2.90;2.60;;;20.50;80.10;;;;;;5036258;28;20384;-66
2021/10/14 11:09:05;;;;;;;2.17;2.00;;;19.70;82.20;;;;;;5027927;28;20488;-65
2021/10/14 11:11:32;;;;;;;1.77;1.67;;;19.50;84.90;;;;;;5026430;28;20403;-66
2021/10/14 11:13:58;;;;;;;1.83;1.70;;;19.30;83.60;;;;;;5035059;28;20441;-67
2021/10/14 11:16:26;;;;;;;1.73;1.30;;;19.30;84.80;;;;;;5028490;28;20404;-66
2021/10/14 11:18:52;;;;;;;2.60;1.73;;;19.10;86.20;;;;;;5016893;28;20249;-70
2021/10/14 11:21:20;;;;;;;1.63;1.53;;;19.00;86.70;;;;;;5017861;28;20425;-67
2021/10/14 11:23:50;;;;;;;2.97;2.77;;;19.00;89.00;;;;;;5017112;28;20494;-67
2021/10/14 11:26:36;;;;;;;1.60;1.50;;;18.70;90.10;;;;;;5016722;28;20837;-68
2021/10/14 11:29:17;;;;;;;2.10;1.40;;;18.70;89.90;;;;;;5031497;28;20439;-68
2021/10/14 11:31:55;;;;;;;2.27;2.17;;;18.70;89.30;;;;;;5035887;28;20402;-68
2021/10/14 11:34:24;;;;;;;3.40;1.60;;;18.50;89.60;;;;;;5036211;28;20388;-67
2021/10/14 11:36:55;;;;;;;2.30;2.10;;;18.30;90.10;;;;;;5035609;28;21182;-68
2021/10/14 11:39:25;;;;;;;2.27;1.73;;;18.30;91.40;;;;;;5034452;28;20410;-67
2021/10/14 11:41:56;;;;;;;1.93;1.80;;;18.30;90.20;;;;;;5035512;28;20400;-67
2021/10/14 11:44:25;;;;;;;2.43;2.17;;;18.20;89.70;;;;;;5035858;28;20405;-70
2021/10/14 11:46:51;;;;;;;1.33;1.27;;;18.20;90.40;;;;;;5034441;28;20478;-69
2021/10/14 11:49:17;;;;;;;2.47;1.90;;;18.20;91.40;;;;;;5035344;28;20577;-71
2021/10/14 11:51:42;;;;;;;2.80;1.67;;;18.10;90.20;;;;;;5022842;28;20227;-69
2021/10/14 11:54:14;;;;;;;1.70;1.60;;;18.00;91.30;;;;;;5033336;28;20188;-70
2021/10/14 11:57:00;;;;;;;1.90;1.80;;;17.90;90.90;;;;;;5021510;28;20270;-68
2021/10/14 11:59:27;;;;;;;3.80;1.70;;;17.90;91.80;;;;;;5035544;28;20731;-68
2021/10/14 12:01:58;;;;;;;3.43;1.80;;;17.70;91.40;;;;;;5030942;28;20396;-69
2021/10/14 12:04:26;;;;;;;1.60;1.50;;;17.70;92.10;;;;;;5028585;28;20428;-69
2021/10/14 12:06:54;;;;;;;1.90;1.80;;;17.70;92.70;;;;;;5034607;28;20483;-69
2021/10/14 12:09:20;;;;;;;2.40;2.20;;;17.60;93.20;;;;;;5034976;28;20468;-67
2021/10/14 12:11:47;;;;;;;1.60;1.50;;;17.70;93.70;;;;;;5033423;28;20461;-68
2021/10/14 12:14:26;;;;;;;1.93;1.70;;;17.60;92.80;;;;;;5035920;28;20383;-69
2021/10/14 12:17:10;;;;;;;1.63;1.53;;;17.70;92.90;;;;;;5034837;28;20825;-69
2021/10/14 12:19:38;;;;;;;2.07;1.20;;;17.70;93.40;;;;;;5023948;28;20849;-71
2021/10/14 12:22:05;;;;;;;1.25;1.15;;;17.60;92.10;;;;;;5023403;28;20771;-71
2021/10/14 12:24:34;;;;;;;2.00;1.83;;;17.80;92.00;;;;;;5034475;28;20811;-71
2021/10/14 12:27:00;;;;;;;1.83;1.73;;;17.70;91.60;;;;;;5034773;28;20170;-70
2021/10/14 12:29:31;;;;;;;1.90;1.80;;;17.60;91.70;;;;;;5033226;28;20466;-70
2021/10/14 12:32:09;;;;;;;1.90;1.73;;;17.60;92.10;;;;;;5033715;28;20170;-69
2021/10/14 12:34:54;;;;;;;1.20;1.10;;;17.50;92.50;;;;;;5034548;28;20391;-70
2021/10/14 12:37:34;;;;;;;1.30;1.20;;;17.60;93.20;;;;;;5016837;28;20421;-69
2021/10/14 12:40:19;;;;;;;2.00;1.83;;;17.60;93.70;;;;;;5016279;28;20449;-66
2021/10/14 12:43:12;;;;;;;3.07;1.53;;;17.70;93.40;;;;;;5029605;28;20423;-65
2021/10/14 12:51:21;;;;;;;1.40;1.30;;;17.60;92.40;;;;;;5025670;28;20479;-65
2021/10/14 12:53:59;;;;;;;1.67;1.57;;;17.40;93.30;;;;;;5034885;28;20459;-66
2021/10/14 12:56:43;;;;;;;1.53;1.43;;;17.30;93.00;;;;;;5033542;28;20458;-67
2021/10/14 12:59:11;;;;;;;1.40;1.30;;;17.10;92.80;;;;;;5034731;28;20428;-67
2021/10/14 13:01:40;;;;;;;2.37;1.70;;;16.90;93.10;;;;;;5034398;28;20434;-66